Time;durP1;ratioP1;P1;durP2;ratioP2;P2;SDS_P1;SDS_P2;PMS_P1;PMS_P2;Temp;Humidity;BMP_temperature;BMP_pressure;BME280_temperature;BME280_humidity;BME280_pressure;Samples;Min_cycle;Max_cycle;Signal;HPM_P1;HPM_P2
2022/03/27 00:00:55;;;;;;;8.67;6.63;;;11.10;99.90;;;;;;2613271;54;20418;-74
2022/03/27 00:03:20;;;;;;;12.80;6.80;;;11.10;99.90;;;;;;2610944;39;20574;-74
2022/03/27 00:05:46;;;;;;;15.77;6.20;;;11.10;99.90;;;;;;2612856;54;20430;-75
2022/03/27 00:08:12;;;;;;;10.10;6.67;;;11.00;99.90;;;;;;2614129;54;20155;-74
2022/03/27 00:13:22;;;;;;;10.43;7.60;;;10.90;99.90;;;;;;2612869;47;20177;-76
2022/03/27 00:15:48;;;;;;;10.83;6.40;;;10.90;99.90;;;;;;2611348;47;20449;-76
2022/03/27 00:18:14;;;;;;;12.73;8.53;;;10.80;99.90;;;;;;2613392;54;20477;-75
2022/03/27 00:20:39;;;;;;;8.30;7.33;;;10.70;99.90;;;;;;2612160;54;20430;-74
2022/03/27 00:23:05;;;;;;;12.90;7.03;;;10.60;99.90;;;;;;2612055;54;20256;-76
2022/03/27 00:25:31;;;;;;;8.83;7.00;;;10.60;99.90;;;;;;2611537;47;20175;-76
2022/03/27 00:27:58;;;;;;;10.57;7.40;;;10.60;99.90;;;;;;2612203;54;20982;-74
2022/03/27 00:30:23;;;;;;;7.80;6.83;;;10.60;99.90;;;;;;2613261;54;20266;-74
2022/03/27 00:32:49;;;;;;;10.53;7.27;;;10.60;99.90;;;;;;2612636;50;20415;-75
2022/03/27 00:35:15;;;;;;;15.30;7.40;;;10.60;99.90;;;;;;2611808;54;20153;-74
2022/03/27 00:37:41;;;;;;;7.87;6.50;;;10.60;99.90;;;;;;2611843;46;20185;-76
2022/03/27 00:40:09;;;;;;;8.70;7.63;;;10.60;99.90;;;;;;2611988;46;20175;-75
2022/03/27 00:42:35;;;;;;;8.83;7.60;;;10.50;99.90;;;;;;2613040;54;20177;-74
2022/03/27 00:45:02;;;;;;;8.70;7.20;;;10.50;99.90;;;;;;2613116;54;20421;-74
2022/03/27 00:47:29;;;;;;;11.40;9.03;;;10.50;99.90;;;;;;2612228;47;20550;-74
2022/03/27 00:49:55;;;;;;;11.97;8.30;;;10.30;99.90;;;;;;2612325;47;20431;-75
2022/03/27 00:52:21;;;;;;;14.30;8.40;;;10.40;99.90;;;;;;2613053;39;21115;-75
2022/03/27 00:54:47;;;;;;;9.50;7.97;;;10.30;99.90;;;;;;2611748;54;20441;-77
2022/03/27 00:57:13;;;;;;;9.43;8.40;;;10.30;99.90;;;;;;2612464;54;21025;-75
2022/03/27 00:59:38;;;;;;;10.40;7.93;;;10.40;99.90;;;;;;2612385;54;20966;-75
2022/03/27 01:02:04;;;;;;;11.43;8.30;;;10.40;99.90;;;;;;2612422;39;20532;-76
2022/03/27 01:04:30;;;;;;;9.73;7.33;;;10.30;99.90;;;;;;2612101;54;20282;-75
2022/03/27 01:06:57;;;;;;;13.77;9.20;;;10.20;99.90;;;;;;2612376;54;20254;-76
2022/03/27 01:09:35;;;;;;;11.70;8.90;;;10.00;99.90;;;;;;2611827;39;20217;-77
2022/03/27 01:12:22;;;;;;;10.60;9.00;;;10.00;99.90;;;;;;2611238;54;20547;-75
2022/03/27 01:14:53;;;;;;;10.40;9.30;;;10.00;99.90;;;;;;2612674;54;20426;-75
2022/03/27 01:17:26;;;;;;;11.57;9.07;;;10.00;99.90;;;;;;2612582;39;20930;-74
2022/03/27 01:19:55;;;;;;;20.97;9.17;;;9.90;99.90;;;;;;2611714;50;20518;-75
2022/03/27 01:22:22;;;;;;;12.90;10.13;;;9.90;99.90;;;;;;2612163;54;20446;-76
2022/03/27 01:24:50;;;;;;;14.50;10.60;;;9.80;99.90;;;;;;2611816;54;20438;-74
2022/03/27 01:27:17;;;;;;;12.03;10.73;;;9.90;99.90;;;;;;2611730;54;20442;-76
2022/03/27 01:29:43;;;;;;;12.40;9.70;;;9.80;99.90;;;;;;2612356;39;20981;-76
2022/03/27 01:32:14;;;;;;;18.40;10.73;;;9.70;99.90;;;;;;2611946;54;20400;-75
2022/03/27 01:34:44;;;;;;;16.57;10.10;;;9.70;99.90;;;;;;2612230;54;20407;-75
2022/03/27 01:37:11;;;;;;;14.20;10.47;;;9.70;99.90;;;;;;2611998;54;20411;-76
2022/03/27 01:39:37;;;;;;;18.23;12.00;;;9.60;99.90;;;;;;2612395;46;20427;-76
2022/03/27 01:42:05;;;;;;;14.93;11.13;;;9.50;99.90;;;;;;2613197;47;20450;-73
2022/03/27 01:44:31;;;;;;;20.77;14.37;;;9.50;99.90;;;;;;2613689;54;21288;-76
2022/03/27 01:46:57;;;;;;;15.53;11.03;;;9.40;99.90;;;;;;2613042;54;20423;-75
2022/03/27 01:49:24;;;;;;;18.50;12.20;;;9.40;99.90;;;;;;2612269;47;20511;-77
2022/03/27 01:51:50;;;;;;;21.00;12.83;;;9.30;99.90;;;;;;2612491;54;20722;-75
2022/03/27 01:54:19;;;;;;;16.30;12.30;;;9.30;99.90;;;;;;2613005;54;20422;-75
2022/03/27 01:56:45;;;;;;;19.07;12.30;;;9.30;99.90;;;;;;2612275;54;20541;-75
2022/03/27 01:59:11;;;;;;;18.90;13.73;;;9.20;99.90;;;;;;2612693;54;20434;-76
2022/03/27 02:01:38;;;;;;;16.07;13.03;;;9.30;99.90;;;;;;2611490;39;20989;-76
2022/03/27 02:04:05;;;;;;;20.80;13.97;;;9.20;99.90;;;;;;2613185;54;21056;-75
2022/03/27 02:06:32;;;;;;;16.30;13.60;;;9.30;99.90;;;;;;2612925;39;21133;-75
2022/03/27 02:09:01;;;;;;;18.60;15.00;;;9.30;99.90;;;;;;2612438;47;20467;-75
2022/03/27 02:11:27;;;;;;;19.90;15.27;;;9.30;99.90;;;;;;2612291;54;20422;-76
2022/03/27 02:13:53;;;;;;;18.73;14.83;;;9.20;99.90;;;;;;2612689;54;20415;-77
2022/03/27 02:16:20;;;;;;;18.57;15.27;;;9.30;99.90;;;;;;2612987;54;21322;-76
2022/03/27 02:18:46;;;;;;;17.90;15.00;;;9.20;99.90;;;;;;2613169;47;20422;-75
2022/03/27 02:21:12;;;;;;;22.10;16.23;;;9.30;99.90;;;;;;2612700;47;20427;-75
2022/03/27 02:23:39;;;;;;;22.73;14.90;;;9.30;99.90;;;;;;2612976;46;20419;-76
2022/03/27 02:26:08;;;;;;;19.80;13.20;;;9.40;99.90;;;;;;2613253;46;20174;-75
2022/03/27 02:28:34;;;;;;;16.33;14.20;;;9.40;99.90;;;;;;2612780;39;20875;-75
2022/03/27 02:31:00;;;;;;;21.57;15.57;;;9.40;99.90;;;;;;2612904;54;20541;-75
2022/03/27 02:33:26;;;;;;;17.97;13.90;;;9.40;99.90;;;;;;2613226;54;20418;-74
2022/03/27 02:35:52;;;;;;;18.27;14.70;;;9.30;99.90;;;;;;2612318;54;20394;-76
2022/03/27 02:38:17;;;;;;;19.73;16.70;;;9.30;99.90;;;;;;2612095;51;20439;-76
2022/03/27 02:40:44;;;;;;;21.07;16.13;;;9.20;99.90;;;;;;2611856;46;20189;-75
2022/03/27 02:43:10;;;;;;;24.70;18.90;;;9.20;99.90;;;;;;2611387;54;21015;-74
2022/03/27 02:45:36;;;;;;;21.70;14.90;;;9.20;99.90;;;;;;2612808;54;20429;-78
2022/03/27 02:48:03;;;;;;;26.50;18.00;;;9.20;99.90;;;;;;2612274;54;20423;-76
2022/03/27 02:50:31;;;;;;;24.13;18.23;;;9.10;99.90;;;;;;2611453;46;20454;-75
2022/03/27 02:52:59;;;;;;;26.63;17.83;;;9.10;99.90;;;;;;2611763;54;20423;-75
2022/03/27 02:55:25;;;;;;;25.43;18.97;;;9.10;99.90;;;;;;2613308;54;20430;-75
2022/03/27 02:57:52;;;;;;;25.13;19.10;;;9.00;99.90;;;;;;2611551;39;20983;-76
2022/03/27 03:00:19;;;;;;;20.57;17.17;;;9.00;99.90;;;;;;2612675;54;20434;-75
2022/03/27 03:02:45;;;;;;;28.07;18.40;;;9.10;99.90;;;;;;2611607;54;20421;-75
2022/03/27 03:05:12;;;;;;;23.50;18.93;;;9.10;99.90;;;;;;2612449;54;21355;-75
2022/03/27 03:07:41;;;;;;;23.67;17.07;;;9.10;99.90;;;;;;2611058;47;20428;-76
2022/03/27 03:10:07;;;;;;;24.57;19.07;;;9.20;99.90;;;;;;2611652;54;21050;-75
2022/03/27 03:12:33;;;;;;;23.33;18.67;;;9.20;99.90;;;;;;2612995;54;20459;-76
2022/03/27 03:14:59;;;;;;;27.33;20.30;;;9.20;99.90;;;;;;2613615;39;20895;-76
2022/03/27 03:17:25;;;;;;;33.20;20.87;;;9.20;99.90;;;;;;2613300;54;20181;-75
2022/03/27 03:19:52;;;;;;;26.67;19.90;;;9.20;99.90;;;;;;2612538;54;20143;-78
2022/03/27 03:22:18;;;;;;;23.90;20.57;;;9.20;99.90;;;;;;2611684;47;20987;-76
2022/03/27 03:24:45;;;;;;;27.23;19.40;;;9.20;99.90;;;;;;2611831;54;20436;-75
2022/03/27 03:27:11;;;;;;;31.17;21.40;;;9.20;99.90;;;;;;2611615;54;20954;-77
2022/03/27 03:29:36;;;;;;;28.33;22.67;;;9.20;99.90;;;;;;2612884;54;20396;-75
2022/03/27 03:32:03;;;;;;;29.40;23.10;;;9.20;99.90;;;;;;2613101;46;20435;-75
2022/03/27 03:34:29;;;;;;;30.00;24.30;;;9.10;99.90;;;;;;2612318;54;20177;-75
2022/03/27 03:36:55;;;;;;;30.23;23.17;;;9.30;99.90;;;;;;2611758;39;21002;-75
2022/03/27 03:39:21;;;;;;;30.57;24.50;;;9.30;99.90;;;;;;2611971;51;20427;-76
2022/03/27 03:41:46;;;;;;;34.17;23.27;;;9.30;99.90;;;;;;2613065;54;20172;-75
2022/03/27 03:44:12;;;;;;;31.63;24.17;;;9.30;99.90;;;;;;2612536;54;20165;-76
2022/03/27 03:46:38;;;;;;;34.53;22.50;;;9.40;99.90;;;;;;2612941;54;20698;-75
2022/03/27 03:49:07;;;;;;;26.50;20.60;;;9.30;99.90;;;;;;2612497;39;20589;-76
2022/03/27 03:51:34;;;;;;;33.70;24.57;;;9.40;99.90;;;;;;2611923;54;20168;-75
2022/03/27 03:54:06;;;;;;;33.43;23.03;;;9.40;99.90;;;;;;2612581;54;20491;-77
2022/03/27 03:56:33;;;;;;;30.60;23.30;;;9.40;99.90;;;;;;2612683;54;20473;-75
2022/03/27 03:58:58;;;;;;;35.10;24.70;;;9.40;99.90;;;;;;2610506;47;20444;-77
2022/03/27 04:01:25;;;;;;;37.17;25.87;;;9.40;99.90;;;;;;2610414;47;20541;-75
2022/03/27 04:03:52;;;;;;;36.30;25.70;;;9.30;99.90;;;;;;2612025;47;20462;-75
2022/03/27 04:06:18;;;;;;;36.37;26.23;;;9.30;99.90;;;;;;2612145;54;20451;-75
2022/03/27 04:08:44;;;;;;;34.20;24.07;;;9.30;99.90;;;;;;2612268;54;20430;-75
2022/03/27 04:11:16;;;;;;;34.87;24.77;;;9.40;99.90;;;;;;2612113;51;20518;-75
2022/03/27 04:13:45;;;;;;;35.40;25.60;;;9.40;99.90;;;;;;2612049;47;20412;-74
2022/03/27 04:16:14;;;;;;;32.43;24.47;;;9.60;99.90;;;;;;2613106;54;20510;-74
2022/03/27 04:18:40;;;;;;;35.33;23.87;;;9.70;99.90;;;;;;2612598;54;20433;-76
2022/03/27 04:21:06;;;;;;;36.33;25.80;;;9.70;99.90;;;;;;2611714;54;20407;-74
2022/03/27 04:23:33;;;;;;;33.80;26.73;;;9.60;99.90;;;;;;2614012;54;20403;-74
2022/03/27 04:25:59;;;;;;;36.73;26.97;;;9.60;99.90;;;;;;2611068;54;20442;-75
2022/03/27 04:28:25;;;;;;;37.50;26.33;;;9.60;99.90;;;;;;2612071;54;20502;-75
2022/03/27 04:30:51;;;;;;;35.53;26.27;;;9.70;99.90;;;;;;2612404;54;20163;-78
2022/03/27 04:33:17;;;;;;;40.03;26.07;;;9.70;99.90;;;;;;2610927;54;20439;-76
2022/03/27 04:35:43;;;;;;;35.33;25.47;;;9.70;99.90;;;;;;2612232;54;20437;-76
2022/03/27 04:38:09;;;;;;;36.67;25.43;;;9.90;99.90;;;;;;2611436;54;20159;-76
2022/03/27 04:40:35;;;;;;;37.10;27.77;;;9.90;99.90;;;;;;2612051;51;20482;-76
2022/03/27 04:43:01;;;;;;;33.80;26.07;;;9.90;99.90;;;;;;2611176;47;20426;-76
2022/03/27 04:45:27;;;;;;;36.23;26.70;;;9.90;99.90;;;;;;2611346;51;20250;-77
2022/03/27 04:47:53;;;;;;;36.00;26.47;;;10.00;99.90;;;;;;2611286;54;20186;-76
2022/03/27 04:50:18;;;;;;;32.63;25.20;;;9.90;99.90;;;;;;2612609;46;20294;-75
2022/03/27 04:52:44;;;;;;;33.53;26.50;;;9.80;99.90;;;;;;2612184;47;20292;-74
2022/03/27 04:55:10;;;;;;;43.90;27.87;;;9.80;99.90;;;;;;2613297;54;20245;-74
2022/03/27 04:57:38;;;;;;;38.20;27.37;;;9.90;99.90;;;;;;2611596;54;20170;-74
2022/03/27 05:00:11;;;;;;;37.93;26.77;;;9.90;99.90;;;;;;2612790;54;20181;-77
2022/03/27 05:02:40;;;;;;;38.83;28.00;;;9.90;99.90;;;;;;2612401;54;20426;-75
2022/03/27 05:05:08;;;;;;;36.10;26.87;;;10.00;99.90;;;;;;2611587;54;20419;-77
2022/03/27 05:07:36;;;;;;;36.37;25.83;;;10.00;99.90;;;;;;2614479;54;20427;-76
2022/03/27 05:10:03;;;;;;;38.80;27.70;;;10.00;99.90;;;;;;2612895;47;20434;-75
2022/03/27 05:12:29;;;;;;;44.83;27.47;;;10.00;99.90;;;;;;2611822;46;20542;-73
2022/03/27 05:14:55;;;;;;;36.07;27.57;;;9.90;99.90;;;;;;2612802;46;20454;-76
2022/03/27 05:17:21;;;;;;;44.27;27.83;;;9.80;99.90;;;;;;2612078;54;20147;-75
2022/03/27 05:19:47;;;;;;;37.80;26.50;;;9.70;99.90;;;;;;2613235;54;21642;-74
2022/03/27 05:22:13;;;;;;;42.00;29.17;;;9.70;99.90;;;;;;2612054;54;20406;-77
2022/03/27 05:24:39;;;;;;;42.37;28.40;;;9.80;99.90;;;;;;2612656;54;20177;-76
2022/03/27 05:27:05;;;;;;;37.60;27.97;;;9.80;99.90;;;;;;2612066;54;20966;-75
2022/03/27 05:29:31;;;;;;;42.47;30.07;;;9.80;99.90;;;;;;2612228;54;20412;-75
2022/03/27 05:31:58;;;;;;;39.53;27.50;;;9.80;99.90;;;;;;2612360;39;20789;-75
2022/03/27 05:34:24;;;;;;;37.07;25.20;;;9.80;99.90;;;;;;2612376;54;21063;-74
2022/03/27 05:36:50;;;;;;;37.03;24.80;;;9.80;99.90;;;;;;2613074;54;20450;-74
2022/03/27 05:39:17;;;;;;;34.20;25.13;;;9.70;99.90;;;;;;2611802;54;21009;-77
2022/03/27 05:41:46;;;;;;;36.80;25.87;;;9.70;99.90;;;;;;2611402;54;20400;-78
2022/03/27 05:44:12;;;;;;;43.57;26.77;;;9.60;99.90;;;;;;2611243;54;20403;-74
2022/03/27 05:46:37;;;;;;;33.37;24.90;;;9.60;99.90;;;;;;2612082;54;20500;-76
2022/03/27 05:49:04;;;;;;;35.80;24.30;;;9.60;99.90;;;;;;2611914;47;20180;-75
2022/03/27 05:51:29;;;;;;;37.40;26.03;;;9.50;99.90;;;;;;2611843;46;21108;-76
2022/03/27 05:53:55;;;;;;;39.87;24.20;;;9.40;99.90;;;;;;2610932;54;20404;-75
2022/03/27 05:56:21;;;;;;;41.67;26.77;;;9.40;99.90;;;;;;2611701;54;20253;-78
2022/03/27 05:58:47;;;;;;;39.10;25.23;;;9.40;99.90;;;;;;2614420;47;20170;-73
2022/03/27 06:01:14;;;;;;;35.80;25.70;;;9.30;99.90;;;;;;2614016;46;20181;-77
2022/03/27 06:03:40;;;;;;;45.40;28.37;;;9.40;99.90;;;;;;2612097;54;20681;-76
2022/03/27 06:06:06;;;;;;;45.37;25.13;;;9.30;99.90;;;;;;2613040;54;21008;-75
2022/03/27 06:08:32;;;;;;;39.90;25.40;;;9.30;99.90;;;;;;2611960;54;20449;-75
2022/03/27 06:10:59;;;;;;;38.33;25.30;;;9.40;99.90;;;;;;2612437;54;20241;-76
2022/03/27 06:13:24;;;;;;;41.17;25.90;;;9.40;99.90;;;;;;2613297;54;20711;-75
2022/03/27 06:15:51;;;;;;;35.00;24.47;;;9.40;99.90;;;;;;2610892;54;20446;-76
2022/03/27 06:18:17;;;;;;;38.37;25.47;;;9.40;99.90;;;;;;2612447;39;20597;-75
2022/03/27 06:20:43;;;;;;;34.03;24.40;;;9.40;99.90;;;;;;2611300;39;21739;-74
2022/03/27 06:23:08;;;;;;;34.77;24.77;;;9.30;99.90;;;;;;2613400;54;20414;-76
2022/03/27 06:25:35;;;;;;;34.10;24.27;;;9.30;99.90;;;;;;2612303;54;20414;-75
2022/03/27 06:28:01;;;;;;;35.90;23.23;;;9.20;99.90;;;;;;2612392;54;20150;-76
2022/03/27 06:30:30;;;;;;;38.83;26.27;;;9.20;99.90;;;;;;2612884;54;21088;-74
2022/03/27 06:32:56;;;;;;;37.93;25.20;;;9.20;99.90;;;;;;2612762;54;20457;-75
2022/03/27 06:35:23;;;;;;;38.03;25.17;;;9.10;99.90;;;;;;2612281;54;20465;-76
2022/03/27 06:37:50;;;;;;;34.93;23.90;;;9.20;99.90;;;;;;2611966;54;20419;-76
2022/03/27 06:40:16;;;;;;;38.60;25.77;;;9.20;99.90;;;;;;2611601;54;20419;-74
2022/03/27 06:42:44;;;;;;;36.00;25.00;;;9.20;99.90;;;;;;2611566;54;21124;-74
2022/03/27 06:45:12;;;;;;;37.47;24.60;;;9.30;99.90;;;;;;2611983;51;20497;-75
2022/03/27 06:47:38;;;;;;;38.30;25.20;;;9.30;99.90;;;;;;2612756;47;20442;-75
2022/03/27 06:50:07;;;;;;;34.27;22.30;;;9.40;99.90;;;;;;2613182;54;20433;-76
2022/03/27 06:52:35;;;;;;;40.43;24.57;;;9.50;99.90;;;;;;2610744;39;21112;-75
2022/03/27 06:55:02;;;;;;;37.13;22.97;;;9.40;99.90;;;;;;2610510;54;20450;-75
2022/03/27 06:57:28;;;;;;;35.67;23.50;;;9.40;99.90;;;;;;2610744;54;20430;-75
2022/03/27 07:05:24;;;;;;;30.57;22.00;;;9.50;99.90;;;;;;2611749;54;21052;-77
2022/03/27 07:07:51;;;;;;;32.70;22.80;;;9.60;99.90;;;;;;2613275;47;20438;-74
2022/03/27 07:10:16;;;;;;;31.23;22.27;;;9.60;99.90;;;;;;2610689;54;20416;-77
2022/03/27 07:12:43;;;;;;;33.50;23.40;;;9.60;99.90;;;;;;2610600;54;21165;-75
2022/03/27 07:15:10;;;;;;;28.70;22.63;;;9.70;99.90;;;;;;2612108;54;20408;-74
2022/03/27 07:17:49;;;;;;;30.70;21.13;;;9.80;99.90;;;;;;2611681;54;20446;-75
2022/03/27 07:20:24;;;;;;;26.10;20.20;;;9.80;99.90;;;;;;2609978;54;20419;-75
2022/03/27 07:22:51;;;;;;;29.97;20.43;;;10.00;99.90;;;;;;2612585;39;20796;-75
2022/03/27 07:25:17;;;;;;;28.40;21.53;;;10.00;99.90;;;;;;2648029;36;20454;-75
2022/03/27 07:27:43;;;;;;;30.13;22.00;;;10.10;99.90;;;;;;2677279;36;21052;-74
2022/03/27 07:30:11;;;;;;;30.30;20.30;;;10.10;99.90;;;;;;2611704;54;20159;-76
2022/03/27 07:32:38;;;;;;;29.77;21.37;;;10.20;99.90;;;;;;2611912;54;20419;-76
2022/03/27 07:35:04;;;;;;;28.60;20.50;;;10.40;99.90;;;;;;2610500;54;20375;-74
2022/03/27 07:37:33;;;;;;;34.27;20.50;;;10.40;99.90;;;;;;2612372;39;20829;-74
2022/03/27 07:40:03;;;;;;;30.63;21.53;;;10.30;99.90;;;;;;2612255;31;20895;-76
2022/03/27 07:42:31;;;;;;;28.27;20.90;;;10.30;99.90;;;;;;2612018;54;20434;-74
2022/03/27 07:44:57;;;;;;;32.70;19.73;;;10.50;99.90;;;;;;2611995;39;20798;-74
2022/03/27 07:47:23;;;;;;;25.60;18.77;;;10.50;99.90;;;;;;2612856;54;20391;-75
2022/03/27 07:49:49;;;;;;;26.10;20.40;;;10.70;99.90;;;;;;2613240;39;20920;-75
2022/03/27 07:52:15;;;;;;;31.33;22.23;;;10.80;99.90;;;;;;2611909;54;20274;-75
2022/03/27 07:54:41;;;;;;;31.47;21.97;;;11.00;99.90;;;;;;2612202;54;20416;-75
2022/03/27 07:57:08;;;;;;;31.33;21.43;;;11.10;99.90;;;;;;2612828;39;20776;-75
2022/03/27 07:59:34;;;;;;;28.90;22.60;;;11.10;99.90;;;;;;2610840;54;20536;-76
2022/03/27 08:02:01;;;;;;;29.43;21.87;;;11.20;99.90;;;;;;2611580;54;20542;-73
2022/03/27 08:04:30;;;;;;;34.60;24.30;;;11.30;99.90;;;;;;2614210;54;20551;-74
2022/03/27 08:06:55;;;;;;;33.13;23.70;;;11.40;99.90;;;;;;2612494;54;20416;-74
2022/03/27 08:09:22;;;;;;;33.47;23.57;;;11.40;99.90;;;;;;2611512;54;21083;-76
2022/03/27 08:11:48;;;;;;;33.93;23.47;;;11.60;99.90;;;;;;2611006;54;20677;-76
2022/03/27 08:14:14;;;;;;;31.83;22.43;;;11.70;99.90;;;;;;2611940;54;20435;-74
2022/03/27 08:16:40;;;;;;;33.13;23.60;;;11.60;99.90;;;;;;2611833;47;20166;-75
2022/03/27 08:19:06;;;;;;;28.63;20.70;;;11.60;99.90;;;;;;2613958;54;20427;-74
2022/03/27 08:21:32;;;;;;;30.67;22.13;;;11.60;99.90;;;;;;2612345;54;20139;-74
2022/03/27 08:23:58;;;;;;;28.00;21.70;;;11.70;99.90;;;;;;2611719;54;20171;-75
2022/03/27 08:29:09;;;;;;;30.40;23.50;;;11.90;99.90;;;;;;2612061;54;20975;-75
2022/03/27 08:31:35;;;;;;;32.50;21.80;;;11.90;99.90;;;;;;2613338;54;20424;-73
2022/03/27 08:34:01;;;;;;;31.47;22.63;;;11.90;99.90;;;;;;2611679;54;20166;-74
2022/03/27 08:36:27;;;;;;;34.17;22.77;;;12.00;99.90;;;;;;2611703;54;21414;-74
2022/03/27 08:38:54;;;;;;;36.13;22.77;;;12.00;99.90;;;;;;2612766;54;20789;-75
2022/03/27 08:41:24;;;;;;;34.47;23.10;;;12.10;99.90;;;;;;2612168;54;20550;-75
2022/03/27 08:43:58;;;;;;;37.00;24.43;;;12.20;99.90;;;;;;2611912;39;21065;-74
2022/03/27 08:46:27;;;;;;;38.43;24.57;;;12.20;99.90;;;;;;2613237;54;20430;-75
2022/03/27 08:48:54;;;;;;;32.93;24.50;;;12.00;99.90;;;;;;2612878;54;20472;-74
2022/03/27 08:51:28;;;;;;;35.63;25.50;;;12.30;99.90;;;;;;2613684;54;20555;-74
2022/03/27 08:54:25;;;;;;;38.27;25.77;;;12.30;99.90;;;;;;2612709;54;20404;-74
2022/03/27 08:57:04;;;;;;;36.20;25.10;;;12.50;99.90;;;;;;2612407;54;20434;-75
2022/03/27 08:59:32;;;;;;;36.20;26.53;;;12.60;99.90;;;;;;2609456;39;20447;-74
2022/03/27 09:02:26;;;;;;;39.40;25.57;;;12.60;99.90;;;;;;2610184;54;20408;-74
2022/03/27 09:05:20;;;;;;;36.70;22.83;;;12.70;99.90;;;;;;2610235;54;20411;-76
2022/03/27 09:07:48;;;;;;;31.97;23.00;;;12.70;99.90;;;;;;2611082;54;20498;-74
2022/03/27 09:10:14;;;;;;;38.13;24.43;;;12.70;99.90;;;;;;2609617;54;20425;-74
2022/03/27 09:12:41;;;;;;;33.53;24.43;;;12.80;99.90;;;;;;2611258;47;20585;-75
2022/03/27 09:15:09;;;;;;;37.20;23.60;;;12.90;99.90;;;;;;2610566;47;20559;-74
2022/03/27 09:17:59;;;;;;;33.83;23.80;;;13.00;99.90;;;;;;2611793;54;20408;-73
2022/03/27 09:20:41;;;;;;;32.67;24.33;;;12.80;99.90;;;;;;2610468;54;20458;-74
2022/03/27 09:23:25;;;;;;;40.23;25.03;;;12.70;99.90;;;;;;2609409;54;20430;-77
2022/03/27 09:26:16;;;;;;;39.50;24.90;;;12.80;99.90;;;;;;2611025;39;20959;-74
2022/03/27 09:28:48;;;;;;;35.23;25.07;;;13.00;99.90;;;;;;2611040;47;20430;-75
2022/03/27 09:31:14;;;;;;;38.10;24.67;;;13.10;99.90;;;;;;2611072;46;20463;-75
2022/03/27 09:33:48;;;;;;;39.83;26.00;;;13.20;99.90;;;;;;2634484;36;20431;-75
2022/03/27 09:36:23;;;;;;;35.70;25.57;;;13.20;99.90;;;;;;2610859;54;20751;-76
2022/03/27 09:39:04;;;;;;;38.43;25.50;;;13.30;99.90;;;;;;2611040;54;20423;-77
2022/03/27 09:41:32;;;;;;;37.13;25.80;;;13.40;99.90;;;;;;2611448;54;20938;-75
2022/03/27 09:44:00;;;;;;;32.00;22.10;;;13.50;99.90;;;;;;2609488;54;20416;-74
2022/03/27 09:46:26;;;;;;;33.97;24.70;;;13.80;99.90;;;;;;2611521;54;20422;-76
2022/03/27 09:48:58;;;;;;;36.93;25.13;;;14.00;99.90;;;;;;2612585;54;20530;-76
2022/03/27 09:51:27;;;;;;;34.10;24.37;;;14.20;99.90;;;;;;2612887;46;20443;-74
2022/03/27 09:53:58;;;;;;;41.67;27.00;;;14.50;99.90;;;;;;2612223;54;20441;-76
2022/03/27 09:56:29;;;;;;;38.63;26.30;;;14.60;99.90;;;;;;2613194;54;20414;-76
2022/03/27 09:58:55;;;;;;;34.93;25.67;;;14.60;99.90;;;;;;2613001;46;20428;-74
2022/03/27 10:01:22;;;;;;;32.30;22.90;;;14.60;99.90;;;;;;2610578;54;20450;-79
2022/03/27 10:04:03;;;;;;;32.40;22.30;;;14.60;99.90;;;;;;2610587;54;20161;-75
2022/03/27 10:06:31;;;;;;;31.67;22.07;;;14.60;99.90;;;;;;2611937;54;20515;-75
2022/03/27 10:08:57;;;;;;;29.30;21.27;;;14.80;99.90;;;;;;2614034;54;20454;-76
2022/03/27 10:11:25;;;;;;;31.67;23.10;;;14.80;99.90;;;;;;2609364;39;21116;-77
2022/03/27 10:13:52;;;;;;;40.53;22.60;;;15.00;98.20;;;;;;2610047;54;21022;-76
2022/03/27 10:16:23;;;;;;;26.70;21.90;;;15.10;97.10;;;;;;2610956;46;20453;-77
2022/03/27 10:18:53;;;;;;;24.70;19.97;;;15.00;94.50;;;;;;2610367;39;21099;-74
2022/03/27 10:21:23;;;;;;;26.43;22.23;;;15.10;94.10;;;;;;2609949;54;20446;-75
2022/03/27 10:23:54;;;;;;;26.40;22.13;;;15.30;94.10;;;;;;2612959;54;20420;-76
2022/03/27 10:26:20;;;;;;;26.87;21.20;;;15.50;90.30;;;;;;2614399;39;20815;-74
2022/03/27 10:28:50;;;;;;;31.83;21.37;;;15.50;87.40;;;;;;2612479;54;20531;-76
2022/03/27 10:31:18;;;;;;;31.27;21.23;;;15.70;85.90;;;;;;2612821;47;20457;-76
2022/03/27 10:33:46;;;;;;;29.43;21.00;;;15.70;82.30;;;;;;2612752;54;20444;-74
2022/03/27 10:36:50;;;;;;;27.80;20.77;;;16.20;80.30;;;;;;2613084;47;20435;-75
2022/03/27 10:39:28;;;;;;;24.33;21.00;;;17.00;69.60;;;;;;2612335;47;20440;-74
2022/03/27 10:42:00;;;;;;;23.57;20.47;;;17.20;61.90;;;;;;2613434;54;20968;-76
2022/03/27 10:44:45;;;;;;;29.73;23.63;;;17.30;57.50;;;;;;2612180;54;20468;-75
2022/03/27 10:47:20;;;;;;;23.83;21.53;;;17.80;55.90;;;;;;2612173;54;20430;-74
2022/03/27 10:50:01;;;;;;;26.40;23.63;;;18.40;45.80;;;;;;2613379;39;20829;-73
2022/03/27 10:52:30;;;;;;;23.27;19.43;;;18.90;40.90;;;;;;2613293;54;20433;-77
2022/03/27 10:55:17;;;;;;;23.23;20.80;;;18.80;38.90;;;;;;2612625;54;20421;-75
2022/03/27 10:57:45;;;;;;;23.83;21.33;;;18.70;35.90;;;;;;2613263;54;20433;-76
2022/03/27 11:00:14;;;;;;;26.17;23.33;;;18.80;33.30;;;;;;2612873;51;20434;-76
2022/03/27 11:02:51;;;;;;;24.23;21.80;;;19.10;30.80;;;;;;2612423;54;20422;-75
2022/03/27 11:05:30;;;;;;;22.70;20.53;;;19.40;26.50;;;;;;2612553;54;21001;-76
2022/03/27 11:08:17;;;;;;;20.73;18.70;;;19.60;24.10;;;;;;2613358;47;20442;-75
2022/03/27 11:10:43;;;;;;;21.80;19.50;;;19.60;23.40;;;;;;2612629;47;20427;-78
2022/03/27 11:13:27;;;;;;;23.80;21.40;;;19.80;22.30;;;;;;2614045;46;20493;-76
2022/03/27 11:16:07;;;;;;;22.90;20.53;;;20.10;18.60;;;;;;2613070;54;20196;-76
2022/03/27 11:18:39;;;;;;;21.53;19.67;;;20.00;18.10;;;;;;2612710;54;20420;-75
2022/03/27 11:21:07;;;;;;;21.70;19.50;;;19.90;17.40;;;;;;2611112;47;20420;-76
2022/03/27 11:23:38;;;;;;;22.43;20.23;;;19.80;17.00;;;;;;2612484;54;20434;-74
2022/03/27 11:26:27;;;;;;;21.53;19.43;;;20.00;16.20;;;;;;2613185;54;20455;-75
2022/03/27 11:29:10;;;;;;;23.60;21.30;;;20.10;15.40;;;;;;2612879;54;20959;-76
2022/03/27 11:31:38;;;;;;;23.60;21.50;;;20.10;14.70;;;;;;2613042;54;20507;-76
2022/03/27 11:34:17;;;;;;;21.57;19.40;;;20.50;12.30;;;;;;2613183;54;20474;-76
2022/03/27 11:36:48;;;;;;;20.17;18.27;;;20.80;10.10;;;;;;2612321;47;21540;-75
2022/03/27 11:39:29;;;;;;;20.90;18.90;;;20.70;8.20;;;;;;2612599;39;20814;-75
2022/03/27 11:42:25;;;;;;;20.80;18.80;;;20.70;7.00;;;;;;2613189;47;20443;-75
2022/03/27 11:45:20;;;;;;;21.30;19.20;;;20.80;7.00;;;;;;2613670;54;20408;-79
2022/03/27 11:47:52;;;;;;;20.43;18.53;;;20.60;6.90;;;;;;2612615;54;20423;-75
2022/03/27 11:50:28;;;;;;;22.63;19.40;;;20.60;7.70;;;;;;2614400;39;20845;-75
2022/03/27 11:52:55;;;;;;;20.80;18.60;;;20.70;7.00;;;;;;2613218;54;20417;-76
2022/03/27 11:55:21;;;;;;;20.03;18.23;;;20.50;7.00;;;;;;2612084;54;20942;-76
2022/03/27 11:57:57;;;;;;;21.13;19.17;;;20.50;7.00;;;;;;2612801;47;20438;-75
2022/03/27 12:00:35;;;;;;;18.77;17.07;;;20.80;4.90;;;;;;2612515;54;20446;-76
2022/03/27 12:03:03;;;;;;;21.17;19.27;;;20.70;7.00;;;;;;2613499;54;20522;-76
2022/03/27 12:05:37;;;;;;;18.57;16.93;;;21.20;4.70;;;;;;2613015;54;20419;-76
2022/03/27 12:08:04;;;;;;;19.63;17.93;;;21.80;1.40;;;;;;2613127;54;21237;-76
2022/03/27 12:10:39;;;;;;;20.30;18.57;;;21.60;1.70;;;;;;2612717;54;20411;-75
2022/03/27 12:13:08;;;;;;;20.40;18.50;;;21.50;1.70;;;;;;2613989;54;20443;-75
2022/03/27 12:15:49;;;;;;;18.37;16.80;;;21.50;1.70;;;;;;2612866;54;20423;-74
2022/03/27 12:18:25;;;;;;;18.70;17.10;;;21.30;2.10;;;;;;2611726;54;20503;-77
2022/03/27 12:20:51;;;;;;;18.97;17.17;;;21.50;2.10;;;;;;2613008;54;20411;-75
2022/03/27 12:23:19;;;;;;;18.37;16.80;;;21.40;1.90;;;;;;2613348;54;20407;-76
2022/03/27 12:29:39;;;;;;;16.90;15.50;;;21.10;2.60;;;;;;2613069;54;20627;-76
2022/03/27 12:32:11;;;;;;;17.07;15.53;;;21.20;1.00;;;;;;2612766;47;20408;-75
2022/03/27 12:34:45;;;;;;;18.00;16.37;;;20.80;1.00;;;;;;2611855;54;20473;-75
2022/03/27 12:37:12;;;;;;;17.27;15.90;;;20.90;1.50;;;;;;2613270;47;21433;-76
2022/03/27 12:39:48;;;;;;;14.40;13.30;;;21.40;1.00;;;;;;2613074;39;20887;-76
2022/03/27 12:42:43;;;;;;;15.20;13.90;;;21.90;1.00;;;;;;2613721;39;20827;-75
2022/03/27 12:45:19;;;;;;;13.67;12.67;;;21.30;1.00;;;;;;2613747;54;20474;-75
2022/03/27 12:47:58;;;;;;;15.40;14.20;;;21.50;1.00;;;;;;2614390;54;20420;-76
2022/03/27 12:50:27;;;;;;;16.07;14.77;;;21.70;1.00;;;;;;2612602;47;20604;-76
2022/03/27 12:52:59;;;;;;;15.50;14.30;;;21.40;1.00;;;;;;2613134;54;20439;-77
2022/03/27 12:55:38;;;;;;;18.27;16.67;;;21.60;1.00;;;;;;2611800;54;20426;-77
2022/03/27 12:58:05;;;;;;;17.93;16.37;;;21.50;1.00;;;;;;2612439;47;20429;-75